Terminal Aerodrome Forecast
Issued by NWS

Home | Current Version | Previous Version | Graphics & Text | Print | Product List | Glossary On
Versions: 1 2 3 4 5 6 7 8 9 10 11 12 13 14
000
FTUS43 KMPX 221741
TAFRWF
TAF
KRWF 221741Z 2218/2318 02007KT 5SM SHRA BR OVC050
      TEMPO 2218/2221 3SM TSRA OVC025CB
     FM222100 01005KT 6SM -SHRA BR VCTS BKN060CB
     FM230000 29006KT P6SM BKN120
     FM230600 29006KT P6SM FEW200
     FM231400 30014G21KT P6SM SCT050=

USA.gov is the U.S. government's official web portal to all federal, state and local government web resources and services.